sensor_id;sensor_type;location;lat;lon;timestamp;temperature;humidity
44277;DHT22;29973;43.742;1.236;2022-07-29T00:00:04;19.60;99.90
44277;DHT22;29973;43.742;1.236;2022-07-29T00:02:31;19.50;99.90
44277;DHT22;29973;43.742;1.236;2022-07-29T00:04:57;19.50;99.90
44277;DHT22;29973;43.742;1.236;2022-07-29T00:07:24;19.30;99.90
44277;DHT22;29973;43.742;1.236;2022-07-29T00:09:50;19.20;99.90
44277;DHT22;29973;43.742;1.236;2022-07-29T00:12:16;19.20;99.90
44277;DHT22;29973;43.742;1.236;2022-07-29T00:14:42;19.40;99.90
44277;DHT22;29973;43.742;1.236;2022-07-29T00:17:08;19.40;99.90
44277;DHT22;29973;43.742;1.236;2022-07-29T00:19:33;19.40;99.90
44277;DHT22;29973;43.742;1.236;2022-07-29T00:22:00;19.30;99.90
44277;DHT22;29973;43.742;1.236;2022-07-29T00:24:26;19.20;99.90
44277;DHT22;29973;43.742;1.236;2022-07-29T00:26:51;19.10;99.90
44277;DHT22;29973;43.742;1.236;2022-07-29T00:29:17;18.90;99.90
44277;DHT22;29973;43.742;1.236;2022-07-29T00:31:43;18.90;99.90
44277;DHT22;29973;43.742;1.236;2022-07-29T00:34:09;19.00;99.90
44277;DHT22;29973;43.742;1.236;2022-07-29T00:36:54;19.00;99.90
44277;DHT22;29973;43.742;1.236;2022-07-29T00:39:20;18.90;99.90
44277;DHT22;29973;43.742;1.236;2022-07-29T00:41:46;19.10;99.90
44277;DHT22;29973;43.742;1.236;2022-07-29T00:44:11;19.50;99.90
44277;DHT22;29973;43.742;1.236;2022-07-29T00:46:37;19.50;99.90
44277;DHT22;29973;43.742;1.236;2022-07-29T00:49:03;19.60;99.90
44277;DHT22;29973;43.742;1.236;2022-07-29T00:51:29;19.70;99.90
44277;DHT22;29973;43.742;1.236;2022-07-29T00:53:56;19.70;99.90
44277;DHT22;29973;43.742;1.236;2022-07-29T00:56:22;19.70;99.90
44277;DHT22;29973;43.742;1.236;2022-07-29T00:58:48;19.50;99.90
44277;DHT22;29973;43.742;1.236;2022-07-29T01:01:16;19.20;99.90
44277;DHT22;29973;43.742;1.236;2022-07-29T01:03:41;19.10;99.90
44277;DHT22;29973;43.742;1.236;2022-07-29T01:06:07;19.00;99.90
44277;DHT22;29973;43.742;1.236;2022-07-29T01:08:34;18.90;99.90
44277;DHT22;29973;43.742;1.236;2022-07-29T01:11:01;18.90;99.90
44277;DHT22;29973;43.742;1.236;2022-07-29T01:13:27;18.90;99.90
44277;DHT22;29973;43.742;1.236;2022-07-29T01:15:59;19.00;99.90
44277;DHT22;29973;43.742;1.236;2022-07-29T01:18:39;18.90;99.90
44277;DHT22;29973;43.742;1.236;2022-07-29T01:21:24;19.00;99.90
44277;DHT22;29973;43.742;1.236;2022-07-29T01:24:33;19.00;99.90
44277;DHT22;29973;43.742;1.236;2022-07-29T01:29:47;18.70;99.90
44277;DHT22;29973;43.742;1.236;2022-07-29T01:32:19;18.60;99.90
44277;DHT22;29973;43.742;1.236;2022-07-29T01:40:12;18.50;99.90
44277;DHT22;29973;43.742;1.236;2022-07-29T01:42:43;18.70;99.90
44277;DHT22;29973;43.742;1.236;2022-07-29T01:45:32;18.70;99.90
44277;DHT22;29973;43.742;1.236;2022-07-29T01:48:00;18.60;99.90
44277;DHT22;29973;43.742;1.236;2022-07-29T01:50:36;18.50;99.90
44277;DHT22;29973;43.742;1.236;2022-07-29T01:53:09;18.50;99.90
44277;DHT22;29973;43.742;1.236;2022-07-29T01:55:43;18.50;99.90
44277;DHT22;29973;43.742;1.236;2022-07-29T01:58:11;18.50;99.90
44277;DHT22;29973;43.742;1.236;2022-07-29T02:00:37;18.70;99.90
44277;DHT22;29973;43.742;1.236;2022-07-29T02:03:09;19.00;99.90
44277;DHT22;29973;43.742;1.236;2022-07-29T02:05:35;19.00;99.90
44277;DHT22;29973;43.742;1.236;2022-07-29T02:08:04;18.90;99.90
44277;DHT22;29973;43.742;1.236;2022-07-29T02:10:33;18.80;99.90
44277;DHT22;29973;43.742;1.236;2022-07-29T02:12:59;18.60;99.90
44277;DHT22;29973;43.742;1.236;2022-07-29T02:15:29;18.60;99.90
44277;DHT22;29973;43.742;1.236;2022-07-29T02:18:05;18.60;99.90
44277;DHT22;29973;43.742;1.236;2022-07-29T02:20:32;18.60;99.90
44277;DHT22;29973;43.742;1.236;2022-07-29T02:22:59;18.60;99.90
44277;DHT22;29973;43.742;1.236;2022-07-29T02:25:26;18.50;99.90
44277;DHT22;29973;43.742;1.236;2022-07-29T02:27:54;18.50;99.90
44277;DHT22;29973;43.742;1.236;2022-07-29T02:30:22;18.50;99.90
44277;DHT22;29973;43.742;1.236;2022-07-29T02:32:49;18.50;99.90
44277;DHT22;29973;43.742;1.236;2022-07-29T02:35:16;18.60;99.90
44277;DHT22;29973;43.742;1.236;2022-07-29T02:37:44;18.60;99.90
44277;DHT22;29973;43.742;1.236;2022-07-29T02:40:32;18.70;99.90
44277;DHT22;29973;43.742;1.236;2022-07-29T02:42:58;18.80;99.90
44277;DHT22;29973;43.742;1.236;2022-07-29T02:45:24;18.70;99.90
44277;DHT22;29973;43.742;1.236;2022-07-29T02:47:51;18.40;99.90
44277;DHT22;29973;43.742;1.236;2022-07-29T02:50:29;18.30;99.90
44277;DHT22;29973;43.742;1.236;2022-07-29T02:55:34;18.20;99.90
44277;DHT22;29973;43.742;1.236;2022-07-29T02:58:25;18.40;99.90
44277;DHT22;29973;43.742;1.236;2022-07-29T03:00:52;18.40;99.90
44277;DHT22;29973;43.742;1.236;2022-07-29T03:03:19;18.50;99.90
44277;DHT22;29973;43.742;1.236;2022-07-29T03:05:45;18.50;99.90
44277;DHT22;29973;43.742;1.236;2022-07-29T03:08:12;18.50;99.90
44277;DHT22;29973;43.742;1.236;2022-07-29T03:10:44;18.50;99.90
44277;DHT22;29973;43.742;1.236;2022-07-29T03:13:11;18.60;99.90
44277;DHT22;29973;43.742;1.236;2022-07-29T03:15:38;18.40;99.90
44277;DHT22;29973;43.742;1.236;2022-07-29T03:18:05;18.30;99.90
44277;DHT22;29973;43.742;1.236;2022-07-29T03:20:31;18.30;99.90
44277;DHT22;29973;43.742;1.236;2022-07-29T03:22:57;18.40;99.90
44277;DHT22;29973;43.742;1.236;2022-07-29T03:25:23;18.40;99.90
44277;DHT22;29973;43.742;1.236;2022-07-29T03:27:49;18.40;99.90
44277;DHT22;29973;43.742;1.236;2022-07-29T03:30:15;18.30;99.90
44277;DHT22;29973;43.742;1.236;2022-07-29T03:32:41;18.30;99.90
44277;DHT22;29973;43.742;1.236;2022-07-29T03:35:07;18.20;99.90
44277;DHT22;29973;43.742;1.236;2022-07-29T03:37:33;18.30;99.90
44277;DHT22;29973;43.742;1.236;2022-07-29T03:40:03;18.40;99.90
44277;DHT22;29973;43.742;1.236;2022-07-29T03:42:36;18.30;99.90
44277;DHT22;29973;43.742;1.236;2022-07-29T03:45:06;18.30;99.90
44277;DHT22;29973;43.742;1.236;2022-07-29T03:47:35;18.30;99.90
44277;DHT22;29973;43.742;1.236;2022-07-29T03:50:08;18.30;99.90
44277;DHT22;29973;43.742;1.236;2022-07-29T03:52:36;18.50;99.90
44277;DHT22;29973;43.742;1.236;2022-07-29T03:55:03;18.50;99.90
44277;DHT22;29973;43.742;1.236;2022-07-29T03:57:30;18.30;99.90
44277;DHT22;29973;43.742;1.236;2022-07-29T03:59:57;18.30;99.90
44277;DHT22;29973;43.742;1.236;2022-07-29T04:02:24;18.30;99.90
44277;DHT22;29973;43.742;1.236;2022-07-29T04:04:51;18.40;99.90
44277;DHT22;29973;43.742;1.236;2022-07-29T04:07:17;18.30;99.90
44277;DHT22;29973;43.742;1.236;2022-07-29T04:09:43;18.30;99.90
44277;DHT22;29973;43.742;1.236;2022-07-29T04:12:09;18.40;99.90
44277;DHT22;29973;43.742;1.236;2022-07-29T04:14:35;18.40;99.90
44277;DHT22;29973;43.742;1.236;2022-07-29T04:17:02;18.40;99.90
44277;DHT22;29973;43.742;1.236;2022-07-29T04:19:29;18.40;99.90
44277;DHT22;29973;43.742;1.236;2022-07-29T04:21:54;18.40;99.90
44277;DHT22;29973;43.742;1.236;2022-07-29T04:24:20;18.40;99.90
44277;DHT22;29973;43.742;1.236;2022-07-29T04:26:46;18.40;99.90
44277;DHT22;29973;43.742;1.236;2022-07-29T04:29:12;18.40;99.90
44277;DHT22;29973;43.742;1.236;2022-07-29T04:31:42;18.40;99.90
44277;DHT22;29973;43.742;1.236;2022-07-29T04:34:08;18.30;99.90
44277;DHT22;29973;43.742;1.236;2022-07-29T04:36:34;18.20;99.90
44277;DHT22;29973;43.742;1.236;2022-07-29T04:39:00;18.10;99.90
44277;DHT22;29973;43.742;1.236;2022-07-29T04:41:27;18.00;99.90
44277;DHT22;29973;43.742;1.236;2022-07-29T04:43:53;18.10;99.90
44277;DHT22;29973;43.742;1.236;2022-07-29T04:46:19;18.10;99.90
44277;DHT22;29973;43.742;1.236;2022-07-29T04:48:48;18.00;99.90
44277;DHT22;29973;43.742;1.236;2022-07-29T04:51:14;17.20;99.90
44277;DHT22;29973;43.742;1.236;2022-07-29T04:53:40;17.50;99.90
44277;DHT22;29973;43.742;1.236;2022-07-29T04:56:06;17.50;99.90
44277;DHT22;29973;43.742;1.236;2022-07-29T04:58:34;17.50;99.90
44277;DHT22;29973;43.742;1.236;2022-07-29T05:01:00;17.20;99.90
44277;DHT22;29973;43.742;1.236;2022-07-29T05:03:26;16.90;99.90
44277;DHT22;29973;43.742;1.236;2022-07-29T05:05:51;16.80;99.90
44277;DHT22;29973;43.742;1.236;2022-07-29T05:08:17;16.80;99.90
44277;DHT22;29973;43.742;1.236;2022-07-29T05:10:43;16.80;99.90
44277;DHT22;29973;43.742;1.236;2022-07-29T05:13:08;16.90;99.90
44277;DHT22;29973;43.742;1.236;2022-07-29T05:15:36;17.10;99.90
44277;DHT22;29973;43.742;1.236;2022-07-29T05:18:03;17.00;99.90
44277;DHT22;29973;43.742;1.236;2022-07-29T05:20:29;17.10;99.90
44277;DHT22;29973;43.742;1.236;2022-07-29T05:22:56;16.90;99.90
44277;DHT22;29973;43.742;1.236;2022-07-29T05:25:23;16.80;99.90
44277;DHT22;29973;43.742;1.236;2022-07-29T05:27:49;17.00;99.90
44277;DHT22;29973;43.742;1.236;2022-07-29T05:30:15;17.00;99.90
44277;DHT22;29973;43.742;1.236;2022-07-29T05:32:41;17.10;99.90
44277;DHT22;29973;43.742;1.236;2022-07-29T05:35:07;17.00;99.90
44277;DHT22;29973;43.742;1.236;2022-07-29T05:37:33;16.80;99.90
44277;DHT22;29973;43.742;1.236;2022-07-29T05:39:59;16.70;99.90
44277;DHT22;29973;43.742;1.236;2022-07-29T05:42:25;16.90;99.90
44277;DHT22;29973;43.742;1.236;2022-07-29T05:44:52;17.00;99.90
44277;DHT22;29973;43.742;1.236;2022-07-29T05:47:18;17.20;99.90
44277;DHT22;29973;43.742;1.236;2022-07-29T05:49:44;17.30;99.90
44277;DHT22;29973;43.742;1.236;2022-07-29T05:52:09;17.30;99.90
44277;DHT22;29973;43.742;1.236;2022-07-29T05:54:35;17.30;99.90
44277;DHT22;29973;43.742;1.236;2022-07-29T05:57:02;17.30;99.90
44277;DHT22;29973;43.742;1.236;2022-07-29T05:59:28;17.30;99.90
44277;DHT22;29973;43.742;1.236;2022-07-29T06:01:54;17.30;99.90
44277;DHT22;29973;43.742;1.236;2022-07-29T06:04:20;17.10;99.90
44277;DHT22;29973;43.742;1.236;2022-07-29T06:06:46;17.10;99.90
44277;DHT22;29973;43.742;1.236;2022-07-29T06:09:11;17.30;99.90
44277;DHT22;29973;43.742;1.236;2022-07-29T06:11:37;17.40;99.90
44277;DHT22;29973;43.742;1.236;2022-07-29T06:14:03;17.50;99.90
44277;DHT22;29973;43.742;1.236;2022-07-29T06:16:29;17.40;99.90
44277;DHT22;29973;43.742;1.236;2022-07-29T06:18:54;17.50;99.90
44277;DHT22;29973;43.742;1.236;2022-07-29T06:21:20;17.70;99.90
44277;DHT22;29973;43.742;1.236;2022-07-29T06:23:46;17.60;99.90
44277;DHT22;29973;43.742;1.236;2022-07-29T06:26:11;17.60;99.90
44277;DHT22;29973;43.742;1.236;2022-07-29T06:28:37;17.80;99.90
44277;DHT22;29973;43.742;1.236;2022-07-29T06:31:03;17.80;99.90
44277;DHT22;29973;43.742;1.236;2022-07-29T06:33:28;17.70;99.90
44277;DHT22;29973;43.742;1.236;2022-07-29T06:35:54;17.70;99.90
44277;DHT22;29973;43.742;1.236;2022-07-29T06:38:20;17.70;99.90
44277;DHT22;29973;43.742;1.236;2022-07-29T06:40:46;17.70;99.90
44277;DHT22;29973;43.742;1.236;2022-07-29T06:43:39;17.80;99.90
44277;DHT22;29973;43.742;1.236;2022-07-29T06:46:14;18.00;99.90
44277;DHT22;29973;43.742;1.236;2022-07-29T06:48:40;18.10;99.90
44277;DHT22;29973;43.742;1.236;2022-07-29T06:51:08;18.20;99.90
44277;DHT22;29973;43.742;1.236;2022-07-29T06:53:34;18.30;99.90
44277;DHT22;29973;43.742;1.236;2022-07-29T06:56:02;18.40;99.90
44277;DHT22;29973;43.742;1.236;2022-07-29T06:58:29;18.40;99.90
44277;DHT22;29973;43.742;1.236;2022-07-29T07:00:56;18.50;99.90
44277;DHT22;29973;43.742;1.236;2022-07-29T07:03:22;18.70;99.90
44277;DHT22;29973;43.742;1.236;2022-07-29T07:05:49;18.70;99.90
44277;DHT22;29973;43.742;1.236;2022-07-29T07:08:15;18.80;99.90
44277;DHT22;29973;43.742;1.236;2022-07-29T07:10:42;19.20;99.90
44277;DHT22;29973;43.742;1.236;2022-07-29T07:13:08;19.30;99.90
44277;DHT22;29973;43.742;1.236;2022-07-29T07:15:36;19.20;99.90
44277;DHT22;29973;43.742;1.236;2022-07-29T07:18:02;19.20;99.90
44277;DHT22;29973;43.742;1.236;2022-07-29T07:20:28;19.20;99.90
44277;DHT22;29973;43.742;1.236;2022-07-29T07:22:54;19.00;99.90
44277;DHT22;29973;43.742;1.236;2022-07-29T07:25:19;18.70;99.90
44277;DHT22;29973;43.742;1.236;2022-07-29T07:27:45;18.60;99.90
44277;DHT22;29973;43.742;1.236;2022-07-29T07:30:11;18.60;99.90
44277;DHT22;29973;43.742;1.236;2022-07-29T07:32:38;18.60;99.90
44277;DHT22;29973;43.742;1.236;2022-07-29T07:35:05;18.30;99.90
44277;DHT22;29973;43.742;1.236;2022-07-29T07:37:31;18.40;99.90
44277;DHT22;29973;43.742;1.236;2022-07-29T07:39:57;18.50;99.90
44277;DHT22;29973;43.742;1.236;2022-07-29T07:42:23;18.80;99.90
44277;DHT22;29973;43.742;1.236;2022-07-29T07:44:49;18.70;99.90
44277;DHT22;29973;43.742;1.236;2022-07-29T07:47:15;18.50;99.90
44277;DHT22;29973;43.742;1.236;2022-07-29T07:49:48;18.50;99.90
44277;DHT22;29973;43.742;1.236;2022-07-29T07:52:16;18.60;99.90
44277;DHT22;29973;43.742;1.236;2022-07-29T07:54:42;18.80;99.90
44277;DHT22;29973;43.742;1.236;2022-07-29T07:57:09;18.80;99.90
44277;DHT22;29973;43.742;1.236;2022-07-29T07:59:35;18.70;99.90
44277;DHT22;29973;43.742;1.236;2022-07-29T08:02:01;18.70;99.90
44277;DHT22;29973;43.742;1.236;2022-07-29T08:04:27;18.80;99.90
44277;DHT22;29973;43.742;1.236;2022-07-29T08:06:52;18.80;99.90
44277;DHT22;29973;43.742;1.236;2022-07-29T08:09:20;19.00;99.90
44277;DHT22;29973;43.742;1.236;2022-07-29T08:11:46;19.00;99.90
44277;DHT22;29973;43.742;1.236;2022-07-29T08:14:12;19.10;99.90
44277;DHT22;29973;43.742;1.236;2022-07-29T08:16:42;19.30;99.90
44277;DHT22;29973;43.742;1.236;2022-07-29T08:19:08;19.20;99.90
44277;DHT22;29973;43.742;1.236;2022-07-29T08:21:35;19.30;99.90
44277;DHT22;29973;43.742;1.236;2022-07-29T08:24:01;19.60;99.90
44277;DHT22;29973;43.742;1.236;2022-07-29T08:26:45;19.60;99.90
44277;DHT22;29973;43.742;1.236;2022-07-29T08:29:12;19.80;99.90
44277;DHT22;29973;43.742;1.236;2022-07-29T08:31:38;19.80;99.90
44277;DHT22;29973;43.742;1.236;2022-07-29T08:34:05;20.10;99.90
44277;DHT22;29973;43.742;1.236;2022-07-29T08:36:32;20.10;99.90
44277;DHT22;29973;43.742;1.236;2022-07-29T08:38:59;20.60;99.90
44277;DHT22;29973;43.742;1.236;2022-07-29T08:41:26;20.60;99.90
44277;DHT22;29973;43.742;1.236;2022-07-29T08:43:52;20.40;99.90
44277;DHT22;29973;43.742;1.236;2022-07-29T08:46:20;20.70;99.90
44277;DHT22;29973;43.742;1.236;2022-07-29T08:48:46;20.80;99.90
44277;DHT22;29973;43.742;1.236;2022-07-29T08:51:14;20.80;99.90
44277;DHT22;29973;43.742;1.236;2022-07-29T08:53:42;20.70;99.90
44277;DHT22;29973;43.742;1.236;2022-07-29T08:56:13;21.20;99.90
44277;DHT22;29973;43.742;1.236;2022-07-29T08:58:39;20.70;99.90
44277;DHT22;29973;43.742;1.236;2022-07-29T09:01:06;21.70;99.90
44277;DHT22;29973;43.742;1.236;2022-07-29T09:03:34;22.10;99.90
44277;DHT22;29973;43.742;1.236;2022-07-29T09:06:02;22.20;99.90
44277;DHT22;29973;43.742;1.236;2022-07-29T09:08:29;22.00;99.90
44277;DHT22;29973;43.742;1.236;2022-07-29T09:10:56;22.00;99.90
44277;DHT22;29973;43.742;1.236;2022-07-29T09:13:22;22.00;99.90
44277;DHT22;29973;43.742;1.236;2022-07-29T09:15:48;22.50;99.90
44277;DHT22;29973;43.742;1.236;2022-07-29T09:18:37;22.40;99.90
44277;DHT22;29973;43.742;1.236;2022-07-29T09:21:08;22.20;99.90
44277;DHT22;29973;43.742;1.236;2022-07-29T09:26:33;22.50;99.90
44277;DHT22;29973;43.742;1.236;2022-07-29T09:31:39;22.90;99.90
44277;DHT22;29973;43.742;1.236;2022-07-29T09:34:06;23.50;99.90
44277;DHT22;29973;43.742;1.236;2022-07-29T09:39:05;23.20;99.90
44277;DHT22;29973;43.742;1.236;2022-07-29T09:41:46;22.40;99.90
44277;DHT22;29973;43.742;1.236;2022-07-29T09:44:16;22.90;99.90
44277;DHT22;29973;43.742;1.236;2022-07-29T09:46:54;23.30;99.90
44277;DHT22;29973;43.742;1.236;2022-07-29T09:49:20;23.50;99.90
44277;DHT22;29973;43.742;1.236;2022-07-29T09:51:46;24.00;99.90
44277;DHT22;29973;43.742;1.236;2022-07-29T09:54:26;24.20;99.90
44277;DHT22;29973;43.742;1.236;2022-07-29T09:56:52;24.80;99.90
44277;DHT22;29973;43.742;1.236;2022-07-29T09:59:19;25.70;99.90
44277;DHT22;29973;43.742;1.236;2022-07-29T10:01:52;24.90;99.90
44277;DHT22;29973;43.742;1.236;2022-07-29T10:04:18;24.50;99.90
44277;DHT22;29973;43.742;1.236;2022-07-29T10:07:01;25.10;99.90
44277;DHT22;29973;43.742;1.236;2022-07-29T10:09:27;26.30;99.90
44277;DHT22;29973;43.742;1.236;2022-07-29T10:12:22;25.50;99.90
44277;DHT22;29973;43.742;1.236;2022-07-29T10:14:49;26.50;99.90
44277;DHT22;29973;43.742;1.236;2022-07-29T10:17:16;27.00;99.90
44277;DHT22;29973;43.742;1.236;2022-07-29T10:19:42;27.20;99.90
44277;DHT22;29973;43.742;1.236;2022-07-29T10:22:09;27.50;99.90
44277;DHT22;29973;43.742;1.236;2022-07-29T10:24:37;26.70;99.90
44277;DHT22;29973;43.742;1.236;2022-07-29T10:27:05;26.60;99.90
44277;DHT22;29973;43.742;1.236;2022-07-29T10:29:31;26.20;99.90
44277;DHT22;29973;43.742;1.236;2022-07-29T10:32:14;25.30;99.90
44277;DHT22;29973;43.742;1.236;2022-07-29T10:40:49;24.80;99.90
44277;DHT22;29973;43.742;1.236;2022-07-29T10:43:40;24.60;99.90
44277;DHT22;29973;43.742;1.236;2022-07-29T10:46:06;24.60;99.90
44277;DHT22;29973;43.742;1.236;2022-07-29T10:48:33;24.50;99.90
44277;DHT22;29973;43.742;1.236;2022-07-29T10:51:04;24.40;99.90
44277;DHT22;29973;43.742;1.236;2022-07-29T10:53:46;24.40;99.90
44277;DHT22;29973;43.742;1.236;2022-07-29T10:56:32;24.90;99.90
44277;DHT22;29973;43.742;1.236;2022-07-29T11:01:53;25.40;99.90
44277;DHT22;29973;43.742;1.236;2022-07-29T11:07:10;26.60;99.90
44277;DHT22;29973;43.742;1.236;2022-07-29T11:09:38;26.80;99.90
44277;DHT22;29973;43.742;1.236;2022-07-29T11:17:17;26.70;99.90
44277;DHT22;29973;43.742;1.236;2022-07-29T11:19:43;27.60;99.90
44277;DHT22;29973;43.742;1.236;2022-07-29T11:22:11;28.30;99.90
44277;DHT22;29973;43.742;1.236;2022-07-29T11:24:37;26.50;99.90
44277;DHT22;29973;43.742;1.236;2022-07-29T11:27:08;27.50;99.90
44277;DHT22;29973;43.742;1.236;2022-07-29T11:29:34;28.30;99.90
44277;DHT22;29973;43.742;1.236;2022-07-29T11:32:12;28.00;99.90
44277;DHT22;29973;43.742;1.236;2022-07-29T11:34:40;27.50;99.90
44277;DHT22;29973;43.742;1.236;2022-07-29T11:47:25;29.20;99.90
44277;DHT22;29973;43.742;1.236;2022-07-29T11:49:53;29.00;99.90
44277;DHT22;29973;43.742;1.236;2022-07-29T11:52:20;28.10;99.90
44277;DHT22;29973;43.742;1.236;2022-07-29T11:54:51;28.40;99.90
44277;DHT22;29973;43.742;1.236;2022-07-29T11:57:19;27.10;99.90
44277;DHT22;29973;43.742;1.236;2022-07-29T11:59:46;26.30;99.90
44277;DHT22;29973;43.742;1.236;2022-07-29T12:02:13;26.60;99.90
44277;DHT22;29973;43.742;1.236;2022-07-29T12:07:14;28.50;99.90
44277;DHT22;29973;43.742;1.236;2022-07-29T12:09:40;28.40;99.90
44277;DHT22;29973;43.742;1.236;2022-07-29T12:12:16;29.10;99.90
44277;DHT22;29973;43.742;1.236;2022-07-29T12:14:42;28.50;99.90
44277;DHT22;29973;43.742;1.236;2022-07-29T12:17:29;28.80;99.90
44277;DHT22;29973;43.742;1.236;2022-07-29T12:19:55;29.80;99.20
44277;DHT22;29973;43.742;1.236;2022-07-29T12:22:26;28.80;99.90
44277;DHT22;29973;43.742;1.236;2022-07-29T12:24:53;27.60;99.90
44277;DHT22;29973;43.742;1.236;2022-07-29T12:27:19;27.20;99.90
44277;DHT22;29973;43.742;1.236;2022-07-29T12:29:55;25.90;99.90
44277;DHT22;29973;43.742;1.236;2022-07-29T12:32:20;25.80;99.90
44277;DHT22;29973;43.742;1.236;2022-07-29T12:34:46;26.60;99.90
44277;DHT22;29973;43.742;1.236;2022-07-29T12:37:12;27.70;99.90
44277;DHT22;29973;43.742;1.236;2022-07-29T12:39:38;28.90;99.90
44277;DHT22;29973;43.742;1.236;2022-07-29T12:42:12;28.10;99.90
44277;DHT22;29973;43.742;1.236;2022-07-29T12:44:49;26.60;99.90
44277;DHT22;29973;43.742;1.236;2022-07-29T12:47:15;26.60;99.90
44277;DHT22;29973;43.742;1.236;2022-07-29T12:49:43;26.10;99.90
44277;DHT22;29973;43.742;1.236;2022-07-29T12:52:29;26.10;99.90
44277;DHT22;29973;43.742;1.236;2022-07-29T12:54:55;26.50;99.90
44277;DHT22;29973;43.742;1.236;2022-07-29T12:57:21;26.80;99.90
44277;DHT22;29973;43.742;1.236;2022-07-29T13:00:00;27.30;99.90
44277;DHT22;29973;43.742;1.236;2022-07-29T13:02:26;26.50;99.90
44277;DHT22;29973;43.742;1.236;2022-07-29T13:05:00;26.70;99.90
44277;DHT22;29973;43.742;1.236;2022-07-29T13:07:27;27.70;99.90
44277;DHT22;29973;43.742;1.236;2022-07-29T13:10:09;27.80;99.90
44277;DHT22;29973;43.742;1.236;2022-07-29T13:12:35;29.00;99.90
44277;DHT22;29973;43.742;1.236;2022-07-29T13:15:15;28.20;99.90
44277;DHT22;29973;43.742;1.236;2022-07-29T13:17:44;28.30;99.90
44277;DHT22;29973;43.742;1.236;2022-07-29T13:20:11;28.50;99.90
44277;DHT22;29973;43.742;1.236;2022-07-29T13:22:47;29.30;99.80
44277;DHT22;29973;43.742;1.236;2022-07-29T13:25:13;29.90;99.00
44277;DHT22;29973;43.742;1.236;2022-07-29T13:27:39;28.60;99.50
44277;DHT22;29973;43.742;1.236;2022-07-29T13:30:08;28.70;99.90
44277;DHT22;29973;43.742;1.236;2022-07-29T13:32:35;28.60;99.90
44277;DHT22;29973;43.742;1.236;2022-07-29T13:35:04;28.30;99.50
44277;DHT22;29973;43.742;1.236;2022-07-29T13:37:30;28.40;99.90
44277;DHT22;29973;43.742;1.236;2022-07-29T13:39:58;30.40;97.10
44277;DHT22;29973;43.742;1.236;2022-07-29T13:42:25;29.90;98.50
44277;DHT22;29973;43.742;1.236;2022-07-29T13:44:51;29.90;96.80
44277;DHT22;29973;43.742;1.236;2022-07-29T13:47:21;28.50;99.40
44277;DHT22;29973;43.742;1.236;2022-07-29T13:49:47;28.50;99.90
44277;DHT22;29973;43.742;1.236;2022-07-29T13:52:13;26.90;99.90
44277;DHT22;29973;43.742;1.236;2022-07-29T13:54:39;27.40;99.90
44277;DHT22;29973;43.742;1.236;2022-07-29T13:57:05;27.80;99.90
44277;DHT22;29973;43.742;1.236;2022-07-29T13:59:31;27.20;99.90
44277;DHT22;29973;43.742;1.236;2022-07-29T14:01:57;26.80;99.90
44277;DHT22;29973;43.742;1.236;2022-07-29T14:04:23;26.20;99.90
44277;DHT22;29973;43.742;1.236;2022-07-29T14:06:50;25.90;99.90
44277;DHT22;29973;43.742;1.236;2022-07-29T14:09:17;25.80;99.90
44277;DHT22;29973;43.742;1.236;2022-07-29T14:11:42;25.70;99.90
44277;DHT22;29973;43.742;1.236;2022-07-29T14:14:08;26.40;99.90
44277;DHT22;29973;43.742;1.236;2022-07-29T14:16:35;26.50;99.90
44277;DHT22;29973;43.742;1.236;2022-07-29T14:19:01;26.40;99.90
44277;DHT22;29973;43.742;1.236;2022-07-29T14:21:27;27.20;99.90
44277;DHT22;29973;43.742;1.236;2022-07-29T14:23:52;27.40;99.90
44277;DHT22;29973;43.742;1.236;2022-07-29T14:26:20;28.40;99.90
44277;DHT22;29973;43.742;1.236;2022-07-29T14:28:47;30.30;98.60
44277;DHT22;29973;43.742;1.236;2022-07-29T14:31:13;33.80;96.20
44277;DHT22;29973;43.742;1.236;2022-07-29T14:33:39;31.40;95.60
44277;DHT22;29973;43.742;1.236;2022-07-29T14:36:05;30.50;96.90
44277;DHT22;29973;43.742;1.236;2022-07-29T14:38:30;31.20;97.30
44277;DHT22;29973;43.742;1.236;2022-07-29T14:40:56;30.10;96.60
44277;DHT22;29973;43.742;1.236;2022-07-29T14:43:22;30.50;96.30
44277;DHT22;29973;43.742;1.236;2022-07-29T14:45:48;29.60;97.00
44277;DHT22;29973;43.742;1.236;2022-07-29T14:48:13;28.60;99.80
44277;DHT22;29973;43.742;1.236;2022-07-29T14:50:39;27.80;99.90
44277;DHT22;29973;43.742;1.236;2022-07-29T14:53:05;26.90;99.90
44277;DHT22;29973;43.742;1.236;2022-07-29T14:55:31;26.50;99.90
44277;DHT22;29973;43.742;1.236;2022-07-29T14:57:57;26.40;99.90
44277;DHT22;29973;43.742;1.236;2022-07-29T15:00:24;26.50;99.90
44277;DHT22;29973;43.742;1.236;2022-07-29T15:02:50;26.50;99.90
44277;DHT22;29973;43.742;1.236;2022-07-29T15:05:16;26.70;99.90
44277;DHT22;29973;43.742;1.236;2022-07-29T15:07:41;26.80;99.90
44277;DHT22;29973;43.742;1.236;2022-07-29T15:10:07;27.30;99.90
44277;DHT22;29973;43.742;1.236;2022-07-29T15:12:33;28.30;99.90
44277;DHT22;29973;43.742;1.236;2022-07-29T15:14:59;30.40;99.60
44277;DHT22;29973;43.742;1.236;2022-07-29T15:17:25;29.80;97.80
44277;DHT22;29973;43.742;1.236;2022-07-29T15:19:50;28.50;99.10
44277;DHT22;29973;43.742;1.236;2022-07-29T15:22:17;31.30;96.60
44277;DHT22;29973;43.742;1.236;2022-07-29T15:24:42;30.30;97.30
44277;DHT22;29973;43.742;1.236;2022-07-29T15:27:08;32.60;95.20
44277;DHT22;29973;43.742;1.236;2022-07-29T15:29:43;32.20;94.10
44277;DHT22;29973;43.742;1.236;2022-07-29T15:32:08;33.50;93.50
44277;DHT22;29973;43.742;1.236;2022-07-29T15:34:34;34.00;91.10
44277;DHT22;29973;43.742;1.236;2022-07-29T15:37:00;33.60;91.90
44277;DHT22;29973;43.742;1.236;2022-07-29T15:39:26;31.80;93.10
44277;DHT22;29973;43.742;1.236;2022-07-29T15:41:52;32.90;93.20
44277;DHT22;29973;43.742;1.236;2022-07-29T15:44:18;32.40;92.20
44277;DHT22;29973;43.742;1.236;2022-07-29T15:46:44;34.50;91.50
44277;DHT22;29973;43.742;1.236;2022-07-29T15:49:35;35.00;88.00
44277;DHT22;29973;43.742;1.236;2022-07-29T15:52:04;34.00;88.30
44277;DHT22;29973;43.742;1.236;2022-07-29T15:54:34;32.50;91.10
44277;DHT22;29973;43.742;1.236;2022-07-29T15:57:01;34.70;90.20
44277;DHT22;29973;43.742;1.236;2022-07-29T15:59:27;34.80;87.30
44277;DHT22;29973;43.742;1.236;2022-07-29T16:01:53;33.70;84.60
44277;DHT22;29973;43.742;1.236;2022-07-29T16:04:19;34.20;85.20
44277;DHT22;29973;43.742;1.236;2022-07-29T16:06:46;36.00;83.10
44277;DHT22;29973;43.742;1.236;2022-07-29T16:09:12;34.00;83.10
44277;DHT22;29973;43.742;1.236;2022-07-29T16:11:38;30.10;91.90
44277;DHT22;29973;43.742;1.236;2022-07-29T16:14:04;28.60;94.50
44277;DHT22;29973;43.742;1.236;2022-07-29T16:16:30;28.50;94.70
44277;DHT22;29973;43.742;1.236;2022-07-29T16:18:56;30.90;93.10
44277;DHT22;29973;43.742;1.236;2022-07-29T16:21:22;28.80;94.20
44277;DHT22;29973;43.742;1.236;2022-07-29T16:23:48;28.50;94.70